Flight Track Log - Related Links

Times and Time Zones

All times are in EST time to prevent confusion due to time zone crossing. See the OPT438 flight status page for this flight to view local times or setup timezone preferences in your user account.

Time Position Orientation Groundspeed Altitude Reporting Facility
EST Latitude Longitude Course Direction KTS MPH feet Rate Location/Type
Tue 09:14:34 AM 41.7667 -87.8000 270° West 178 205 2,900  Level Chicago TRACON
Tue 09:15:28 AM 41.7667 -87.8667 270° West 221 254 3,000 450 Climbing Chicago TRACON
Tue 09:16:34 AM 41.7667 -87.9667 270° West 235 270 3,800 476 Climbing Chicago TRACON
Tue 09:17:34 AM 41.7667 -88.0500 270° West 239 275 4,000 125 Climbing Chicago TRACON
Tue 09:18:10 AM 41.7764 -88.1064 283° West 258 297 4,000  Level Chicago Center
Tue 09:19:12 AM 41.7972 -88.1853 290° West 230 265 4,000  Level Chicago Center
Tue 09:20:14 AM 41.8206 -88.2622 292° West 230 265 4,000  Level Chicago Center
Tue 09:21:15 AM 41.8450 -88.3400 293° West 228 262 4,000  Level Chicago Center
Tue 09:22:17 AM 41.8650 -88.4108 291° West 250 288 4,000  Level Chicago Center
Tue 09:23:19 AM 41.8994 -88.5111 295° West 247 284 4,000  Level Chicago Center
Tue 09:24:20 AM 41.9192 -88.5889 289° West 238 274 4,000  Level Chicago Center
Tue 09:25:22 AM 41.9194 -88.6700 270° West 226 260 4,000  Level Chicago Center
Tue 09:26:24 AM 41.9203 -88.7525 271° West 222 255 4,000  Level Chicago Center
Tue 09:27:26 AM 41.9206 -88.8317 270° West 218 251 4,000  Level Chicago Center
Tue 09:28:27 AM 41.9467 -88.9017 297° West 234 269 4,000  Level Chicago Center
Tue 09:29:29 AM 42.0136 -88.9219 347° North 248 285 4,000  Level Chicago Center
Tue 09:30:31 AM 42.0958 -88.9525 345° North 251 289 4,000  Level Chicago Center
Tue 09:31:33 AM 42.1650 -88.9706 349° North 254 292 4,000 -341 Level Chicago Center
Tue 09:32:34 AM 42.2339 -88.9672 North 251 289 3,300 -677 Descending Chicago Center
Tue 09:33:37 AM 42.2439 -89.0314 282° West 206 237 2,600 -667 Descending Chicago Center

Login

Don't have an account? Register now (free) for customized features, flight alerts, and more!